Time;durP1;ratioP1;P1;durP2;ratioP2;P2;SDS_P1;SDS_P2;PMS_P1;PMS_P2;Temp;Humidity;BMP_temperature;BMP_pressure;BME280_temperature;BME280_humidity;BME280_pressure;Samples;Min_cycle;Max_cycle;Signal;HPM_P1;HPM_P2
2023/04/23 00:01:57;;;;;;;33.50;21.13;;;;;;;;;;5047912;28;20024;-64
2023/04/23 00:04:24;;;;;;;36.93;22.43;;;;;;;;;;5050083;28;20579;-64
2023/04/23 00:06:50;;;;;;;37.20;23.53;;;;;;;;;;5050296;28;20040;-63
2023/04/23 00:09:17;;;;;;;35.90;22.47;;;;;;;;;;5046958;28;20017;-63
2023/04/23 00:11:42;;;;;;;38.77;23.50;;;;;;;;;;5050797;28;20025;-63
2023/04/23 00:14:08;;;;;;;38.03;24.07;;;;;;;;;;5048978;28;20380;-63
2023/04/23 00:16:33;;;;;;;40.27;23.23;;;;;;;;;;5043044;28;20036;-64
2023/04/23 00:18:58;;;;;;;36.60;21.50;;;;;;;;;;5036684;28;20016;-63
2023/04/23 00:21:24;;;;;;;40.67;25.43;;;;;;;;;;5057221;28;20491;-64
2023/04/23 00:23:49;;;;;;;39.57;24.43;;;;;;;;;;5054629;28;20032;-63
2023/04/23 00:26:16;;;;;;;39.03;23.97;;;;;;;;;;5045590;28;20053;-63
2023/04/23 00:28:41;;;;;;;37.40;23.73;;;;;;;;;;5048822;28;20030;-63
2023/04/23 00:31:06;;;;;;;35.27;21.50;;;;;;;;;;5046708;28;20364;-63
2023/04/23 00:33:32;;;;;;;38.10;23.87;;;;;;;;;;5043946;28;20029;-64
2023/04/23 00:35:57;;;;;;;37.77;23.03;;;;;;;;;;5049248;28;20035;-63
2023/04/23 00:38:22;;;;;;;39.33;23.53;;;;;;;;;;5047794;28;20025;-63
2023/04/23 00:40:48;;;;;;;42.10;25.93;;;;;;;;;;5050594;28;20037;-63
2023/04/23 00:43:14;;;;;;;38.87;23.07;;;;;;;;;;5045014;28;20017;-63
2023/04/23 00:45:39;;;;;;;35.93;21.63;;;;;;;;;;5048839;28;20476;-63
2023/04/23 00:48:05;;;;;;;39.63;22.80;;;;;;;;;;5046182;28;20025;-62
2023/04/23 00:50:31;;;;;;;38.60;24.47;;;;;;;;;;5052689;28;20416;-63
2023/04/23 00:52:56;;;;;;;37.30;23.30;;;;;;;;;;5055529;28;20025;-63
2023/04/23 00:55:22;;;;;;;39.77;23.63;;;;;;;;;;5044648;28;20517;-63
2023/04/23 00:57:47;;;;;;;38.80;24.10;;;;;;;;;;5048398;28;20021;-63
2023/04/23 01:03:17;;;;;;;36.50;21.33;;;;;;;;;;5046369;28;20055;-63
2023/04/23 01:05:42;;;;;;;40.77;24.67;;;;;;;;;;5045542;28;20469;-63
2023/04/23 01:08:10;;;;;;;39.80;24.40;;;;;;;;;;5045512;28;20020;-63
2023/04/23 01:10:36;;;;;;;37.67;23.30;;;;;;;;;;5049370;28;20021;-63
2023/04/23 01:13:01;;;;;;;31.93;19.90;;;;;;;;;;5038391;28;20120;-63
2023/04/23 01:15:27;;;;;;;25.33;16.00;;;;;;;;;;5048412;28;20027;-64
2023/04/23 01:17:52;;;;;;;26.30;16.97;;;;;;;;;;5038079;28;20048;-63
2023/04/23 01:20:17;;;;;;;26.73;17.10;;;;;;;;;;5053378;28;20096;-64
2023/04/23 01:22:43;;;;;;;25.60;16.90;;;;;;;;;;5052371;28;20029;-63
2023/04/23 01:25:09;;;;;;;29.07;17.07;;;;;;;;;;5048575;28;20021;-63
2023/04/23 01:27:34;;;;;;;31.27;17.70;;;;;;;;;;5045474;28;20029;-64
2023/04/23 01:30:02;;;;;;;29.87;18.27;;;;;;;;;;5051258;28;20086;-64
2023/04/23 01:32:27;;;;;;;29.87;19.30;;;;;;;;;;5039884;28;20485;-63
2023/04/23 01:34:53;;;;;;;32.90;19.77;;;;;;;;;;5038454;28;20049;-64
2023/04/23 01:37:18;;;;;;;30.83;19.70;;;;;;;;;;5046753;28;20025;-64
2023/04/23 01:39:44;;;;;;;32.20;19.33;;;;;;;;;;5038732;28;20044;-64
2023/04/23 01:42:10;;;;;;;34.47;20.60;;;;;;;;;;5045643;28;20035;-64
2023/04/23 01:44:35;;;;;;;37.43;21.23;;;;;;;;;;5049343;28;20025;-63
2023/04/23 01:47:01;;;;;;;36.23;21.27;;;;;;;;;;5049990;28;21289;-63
2023/04/23 01:49:27;;;;;;;36.17;21.67;;;;;;;;;;5043767;28;20560;-64
2023/04/23 01:51:52;;;;;;;37.10;21.90;;;;;;;;;;5034806;28;20018;-63
2023/04/23 01:54:17;;;;;;;39.60;22.17;;;;;;;;;;5047744;28;20033;-63
2023/04/23 01:56:42;;;;;;;41.87;23.80;;;;;;;;;;5052208;28;20385;-63
2023/04/23 01:59:08;;;;;;;40.37;23.03;;;;;;;;;;5054024;28;20019;-63
2023/04/23 02:01:41;;;;;;;45.07;24.70;;;;;;;;;;5041916;28;20052;-64
2023/04/23 02:04:06;;;;;;;46.37;25.67;;;;;;;;;;5052594;28;20053;-64
2023/04/23 02:06:31;;;;;;;46.67;26.47;;;;;;;;;;5045242;28;20032;-63
2023/04/23 02:08:57;;;;;;;48.40;26.77;;;;;;;;;;5049817;28;20024;-64
2023/04/23 02:11:22;;;;;;;47.50;23.67;;;;;;;;;;5042470;28;20024;-64
2023/04/23 02:13:47;;;;;;;46.10;24.83;;;;;;;;;;5045033;28;20028;-64
2023/04/23 02:16:13;;;;;;;46.07;25.20;;;;;;;;;;5047530;28;20032;-63
2023/04/23 02:18:38;;;;;;;49.90;25.63;;;;;;;;;;5041048;28;20013;-63
2023/04/23 02:21:03;;;;;;;49.33;27.10;;;;;;;;;;5035469;28;20032;-64
2023/04/23 02:23:29;;;;;;;51.27;26.73;;;;;;;;;;5035090;28;20033;-64
2023/04/23 02:25:54;;;;;;;53.60;27.90;;;;;;;;;;5038436;28;20021;-63
2023/04/23 02:28:19;;;;;;;56.17;28.50;;;;;;;;;;5046665;28;20147;-64
2023/04/23 02:30:46;;;;;;;54.60;27.67;;;;;;;;;;5043564;28;20040;-64
2023/04/23 02:33:12;;;;;;;56.83;29.00;;;;;;;;;;5040235;28;20476;-64
2023/04/23 02:35:37;;;;;;;54.23;28.40;;;;;;;;;;5051079;28;20104;-64
2023/04/23 02:38:02;;;;;;;56.07;28.57;;;;;;;;;;5051479;28;20125;-63
2023/04/23 02:40:27;;;;;;;56.37;28.83;;;;;;;;;;5039718;28;20096;-64
2023/04/23 02:42:53;;;;;;;55.50;28.13;;;;;;;;;;5037390;28;20971;-64
2023/04/23 02:45:18;;;;;;;55.80;29.43;;;;;;;;;;5045010;28;20485;-64
2023/04/23 02:47:44;;;;;;;61.30;30.37;;;;;;;;;;5051254;28;20104;-64
2023/04/23 02:50:09;;;;;;;50.30;27.87;;;;;;;;;;5042910;28;20017;-64
2023/04/23 02:52:35;;;;;;;53.03;27.60;;;;;;;;;;5038235;28;20017;-64
2023/04/23 02:55:01;;;;;;;52.00;28.70;;;;;;;;;;5036140;28;20048;-64
2023/04/23 02:57:27;;;;;;;55.57;29.07;;;;;;;;;;5045746;28;20459;-64
2023/04/23 02:59:52;;;;;;;53.83;28.67;;;;;;;;;;5051066;28;20412;-64
2023/04/23 03:02:17;;;;;;;53.40;28.93;;;;;;;;;;5047306;28;20027;-64
2023/04/23 03:04:42;;;;;;;52.20;27.97;;;;;;;;;;5043435;28;20140;-64
2023/04/23 03:07:08;;;;;;;51.77;28.23;;;;;;;;;;5033470;28;20014;-63
2023/04/23 03:09:33;;;;;;;54.47;27.67;;;;;;;;;;5051617;28;20013;-63
2023/04/23 03:11:58;;;;;;;56.47;27.90;;;;;;;;;;5038439;28;20052;-64
2023/04/23 03:14:24;;;;;;;56.97;30.83;;;;;;;;;;5037157;28;20078;-65
2023/04/23 03:16:49;;;;;;;56.97;28.20;;;;;;;;;;5036873;28;20022;-64
2023/04/23 03:19:14;;;;;;;56.50;29.73;;;;;;;;;;5047130;28;20020;-64
2023/04/23 03:21:40;;;;;;;59.80;30.83;;;;;;;;;;5042649;28;20390;-64
2023/04/23 03:24:05;;;;;;;55.93;29.20;;;;;;;;;;5041711;28;20462;-64
2023/04/23 03:26:31;;;;;;;60.70;30.97;;;;;;;;;;5033806;28;20017;-64
2023/04/23 03:28:56;;;;;;;59.07;30.00;;;;;;;;;;5046380;28;20052;-64
2023/04/23 03:31:21;;;;;;;59.17;29.53;;;;;;;;;;5047281;28;20118;-64
2023/04/23 03:33:46;;;;;;;59.23;30.27;;;;;;;;;;5042009;28;20021;-64
2023/04/23 03:36:12;;;;;;;62.33;31.23;;;;;;;;;;5036404;28;20548;-64
2023/04/23 03:38:37;;;;;;;62.73;31.03;;;;;;;;;;5046877;28;20111;-64
2023/04/23 03:41:03;;;;;;;60.40;30.97;;;;;;;;;;5041873;28;20100;-64
2023/04/23 03:43:28;;;;;;;66.27;33.47;;;;;;;;;;5034647;28;20397;-64
2023/04/23 03:45:54;;;;;;;68.80;32.20;;;;;;;;;;5047083;28;20017;-63
2023/04/23 03:48:20;;;;;;;67.23;31.97;;;;;;;;;;5033723;28;20021;-64
2023/04/23 03:50:45;;;;;;;68.57;32.57;;;;;;;;;;5055375;28;20025;-63
2023/04/23 03:53:11;;;;;;;69.20;33.20;;;;;;;;;;5048044;28;20070;-64
2023/04/23 03:55:36;;;;;;;72.70;33.70;;;;;;;;;;5050814;28;20036;-64
2023/04/23 03:58:02;;;;;;;79.20;34.80;;;;;;;;;;5041422;28;20377;-64
2023/04/23 04:00:27;;;;;;;81.27;35.43;;;;;;;;;;5047202;28;20032;-64
2023/04/23 04:02:52;;;;;;;81.57;35.97;;;;;;;;;;5040845;28;20025;-64
2023/04/23 04:05:18;;;;;;;87.43;37.50;;;;;;;;;;5046835;28;20106;-64
2023/04/23 04:07:43;;;;;;;86.10;37.70;;;;;;;;;;5054051;28;20032;-64
2023/04/23 04:10:08;;;;;;;95.27;40.43;;;;;;;;;;5041537;28;20029;-63
2023/04/23 04:12:35;;;;;;;94.30;39.17;;;;;;;;;;5044333;28;20337;-64
2023/04/23 04:15:01;;;;;;;91.70;40.27;;;;;;;;;;5046133;28;20456;-64
2023/04/23 04:17:27;;;;;;;106.07;42.03;;;;;;;;;;5040858;28;20160;-64
2023/04/23 04:19:52;;;;;;;102.90;42.83;;;;;;;;;;5033877;28;20100;-64
2023/04/23 04:22:17;;;;;;;104.13;42.60;;;;;;;;;;5036166;28;20486;-64
2023/04/23 04:24:43;;;;;;;112.37;44.43;;;;;;;;;;5035224;28;20376;-63
2023/04/23 04:27:08;;;;;;;113.37;43.33;;;;;;;;;;5032718;28;20033;-64
2023/04/23 04:29:33;;;;;;;115.97;45.27;;;;;;;;;;5043357;28;20021;-64
2023/04/23 04:32:00;;;;;;;115.23;44.90;;;;;;;;;;5042670;28;20021;-64
2023/04/23 04:34:25;;;;;;;115.37;43.33;;;;;;;;;;5039675;28;20400;-64
2023/04/23 04:36:52;;;;;;;112.27;43.47;;;;;;;;;;5047536;28;20078;-64
2023/04/23 04:39:18;;;;;;;119.83;44.80;;;;;;;;;;5047814;28;20017;-64
2023/04/23 04:41:44;;;;;;;118.17;45.23;;;;;;;;;;5040951;28;20225;-64
2023/04/23 04:44:09;;;;;;;112.57;44.40;;;;;;;;;;5051369;28;20798;-64
2023/04/23 04:46:39;;;;;;;108.00;41.90;;;;;;;;;;5039393;28;20101;-64
2023/04/23 04:49:11;;;;;;;117.27;42.77;;;;;;;;;;5043704;28;20025;-64
2023/04/23 04:51:37;;;;;;;115.97;44.10;;;;;;;;;;5050868;28;20025;-64
2023/04/23 04:54:02;;;;;;;118.33;44.40;;;;;;;;;;5052904;28;20373;-64
2023/04/23 04:56:28;;;;;;;127.30;46.53;;;;;;;;;;5051069;28;20022;-64
2023/04/23 04:58:53;;;;;;;126.30;45.87;;;;;;;;;;5054542;28;20096;-64
2023/04/23 05:01:19;;;;;;;125.43;45.83;;;;;;;;;;5043445;28;20021;-64
2023/04/23 05:03:45;;;;;;;129.63;47.10;;;;;;;;;;5047839;28;20394;-64
2023/04/23 05:06:10;;;;;;;117.13;43.47;;;;;;;;;;5047935;28;20104;-64
2023/04/23 05:08:35;;;;;;;111.50;43.07;;;;;;;;;;5041359;28;20025;-64
2023/04/23 05:11:02;;;;;;;101.47;39.97;;;;;;;;;;5046571;28;20021;-64
2023/04/23 05:13:27;;;;;;;106.73;41.33;;;;;;;;;;5035971;28;20045;-64
2023/04/23 05:15:53;;;;;;;109.13;42.47;;;;;;;;;;5043335;28;20055;-65
2023/04/23 05:18:19;;;;;;;105.80;41.57;;;;;;;;;;5051769;28;20082;-64
2023/04/23 05:20:44;;;;;;;103.67;42.13;;;;;;;;;;5043187;28;20028;-64
2023/04/23 05:23:10;;;;;;;105.67;42.87;;;;;;;;;;5036007;28;20104;-64
2023/04/23 05:25:35;;;;;;;99.30;40.70;;;;;;;;;;5045829;28;20029;-64
2023/04/23 05:28:00;;;;;;;107.03;41.43;;;;;;;;;;5050758;28;20021;-64
2023/04/23 05:30:26;;;;;;;104.40;42.97;;;;;;;;;;5051300;28;20118;-64
2023/04/23 05:32:51;;;;;;;111.73;43.07;;;;;;;;;;5038591;28;20021;-64
2023/04/23 05:35:17;;;;;;;110.87;43.57;;;;;;;;;;5045641;28;20401;-64
2023/04/23 05:37:42;;;;;;;105.60;43.00;;;;;;;;;;5047756;28;20414;-64
2023/04/23 05:40:08;;;;;;;101.77;41.70;;;;;;;;;;5039614;28;20083;-64
2023/04/23 05:42:34;;;;;;;97.53;40.40;;;;;;;;;;5045043;28;20451;-64
2023/04/23 05:44:59;;;;;;;99.40;42.07;;;;;;;;;;5051238;28;20029;-64
2023/04/23 05:47:25;;;;;;;97.30;42.17;;;;;;;;;;5045454;28;20028;-64
2023/04/23 05:49:50;;;;;;;105.13;44.63;;;;;;;;;;5049607;28;20025;-64
2023/04/23 05:52:15;;;;;;;100.90;43.00;;;;;;;;;;5050302;28;20017;-63
2023/04/23 05:54:41;;;;;;;92.10;41.53;;;;;;;;;;5045004;28;20021;-63
2023/04/23 05:57:06;;;;;;;84.27;38.93;;;;;;;;;;5054801;28;20032;-64
2023/04/23 05:59:32;;;;;;;79.60;38.23;;;;;;;;;;5052023;28;20045;-63
2023/04/23 06:01:58;;;;;;;69.47;36.93;;;;;;;;;;5048266;28;20059;-63
2023/04/23 06:04:23;;;;;;;66.67;36.17;;;;;;;;;;5045689;28;20072;-63
2023/04/23 06:06:48;;;;;;;67.00;35.63;;;;;;;;;;5033915;28;20013;-63
2023/04/23 06:09:14;;;;;;;67.00;35.37;;;;;;;;;;5042800;28;20025;-63
2023/04/23 06:11:39;;;;;;;61.13;33.53;;;;;;;;;;5049916;28;20482;-63
2023/04/23 06:14:04;;;;;;;62.00;33.27;;;;;;;;;;5048878;28;20023;-63
2023/04/23 06:16:30;;;;;;;57.67;33.73;;;;;;;;;;5050897;28;20017;-63
2023/04/23 06:18:55;;;;;;;66.10;36.17;;;;;;;;;;5037535;28;20423;-63
2023/04/23 06:21:21;;;;;;;66.43;34.80;;;;;;;;;;5051615;28;20534;-63
2023/04/23 06:23:46;;;;;;;65.50;36.20;;;;;;;;;;5050649;28;20074;-63
2023/04/23 06:26:11;;;;;;;66.27;36.73;;;;;;;;;;5035599;28;20320;-63
2023/04/23 06:28:38;;;;;;;67.53;37.53;;;;;;;;;;5035617;28;20813;-63
2023/04/23 06:31:04;;;;;;;63.40;36.20;;;;;;;;;;5044330;28;20014;-62
2023/04/23 06:33:29;;;;;;;58.73;33.33;;;;;;;;;;5040055;28;20380;-62
2023/04/23 06:35:55;;;;;;;52.45;31.52;;;;;;;;;;5052272;28;20017;-62
2023/04/23 06:38:21;;;;;;;53.88;31.00;;;;;;;;;;5047521;28;20025;-62
2023/04/23 06:40:47;;;;;;;48.72;30.88;;;;;;;;;;5038180;28;20036;-61
2023/04/23 06:43:13;;;;;;;48.63;29.65;;;;;;;;;;5050636;28;20021;-62
2023/04/23 06:45:39;;;;;;;47.42;29.73;;;;;;;;;;5044359;28;20043;-62
2023/04/23 06:48:04;;;;;;;47.72;31.05;;;;;;;;;;5042230;28;20029;-62
2023/04/23 06:50:30;;;;;;;49.92;31.25;;;;;;;;;;5050975;28;20021;-62
2023/04/23 06:52:55;;;;;;;49.58;31.27;;;;;;;;;;5052486;28;20017;-62
2023/04/23 06:55:24;;;;;;;49.13;32.42;;;;;;;;;;5053969;28;20492;-63
2023/04/23 06:57:50;;;;;;;50.15;32.92;;;;;;;;;;5061983;28;20024;-62
2023/04/23 07:00:15;;;;;;;53.40;34.28;;;;;;;;;;5052572;28;20028;-63
2023/04/23 07:02:40;;;;;;;54.20;34.50;;;;;;;;;;5058917;28;20560;-63
2023/04/23 07:05:06;;;;;;;51.63;32.88;;;;;;;;;;5053954;28;20444;-63
2023/04/23 07:07:32;;;;;;;57.03;36.05;;;;;;;;;;5056096;28;20110;-64
2023/04/23 07:09:57;;;;;;;57.60;35.40;;;;;;;;;;5049474;28;20052;-63
2023/04/23 07:12:22;;;;;;;56.83;35.08;;;;;;;;;;5049594;28;20040;-63
2023/04/23 07:14:47;;;;;;;58.75;35.65;;;;;;;;;;5052536;28;20487;-63
2023/04/23 07:17:13;;;;;;;57.97;35.38;;;;;;;;;;5052201;28;20087;-63
2023/04/23 07:19:38;;;;;;;55.03;33.35;;;;;;;;;;5045609;28;20030;-63
2023/04/23 07:22:04;;;;;;;53.42;31.83;;;;;;;;;;5050290;28;20078;-62
2023/04/23 07:24:29;;;;;;;59.25;32.67;;;;;;;;;;5046455;28;20053;-62
2023/04/23 07:26:54;;;;;;;53.40;31.13;;;;;;;;;;5046168;28;20021;-63
2023/04/23 07:29:20;;;;;;;46.88;30.15;;;;;;;;;;5054139;28;20025;-62
2023/04/23 07:31:46;;;;;;;45.05;28.42;;;;;;;;;;5054966;28;20465;-62
2023/04/23 07:34:11;;;;;;;39.90;27.13;;;;;;;;;;5046418;28;20546;-62
2023/04/23 07:36:37;;;;;;;39.67;26.08;;;;;;;;;;5053268;28;20526;-62
2023/04/23 07:39:04;;;;;;;36.10;24.23;;;;;;;;;;5053319;28;20078;-62
2023/04/23 07:41:29;;;;;;;37.28;24.92;;;;;;;;;;5046667;28;20468;-62
2023/04/23 07:43:55;;;;;;;31.50;22.30;;;;;;;;;;5049955;28;20094;-62
2023/04/23 07:46:20;;;;;;;33.13;23.08;;;;;;;;;;5051885;28;21864;-62
2023/04/23 07:48:46;;;;;;;31.27;21.90;;;;;;;;;;5050567;28;20070;-62
2023/04/23 07:51:11;;;;;;;31.95;21.58;;;;;;;;;;5049308;28;20032;-62
2023/04/23 07:53:36;;;;;;;30.08;19.70;;;;;;;;;;5051061;28;20062;-62
2023/04/23 07:56:01;;;;;;;27.35;18.08;;;;;;;;;;5049577;28;20017;-62
2023/04/23 07:58:27;;;;;;;30.35;21.45;;;;;;;;;;5052999;28;20380;-62
2023/04/23 08:00:52;;;;;;;27.67;19.48;;;;;;;;;;5049245;28;20021;-62
2023/04/23 08:03:17;;;;;;;28.95;20.63;;;;;;;;;;5057439;28;20094;-62
2023/04/23 08:05:43;;;;;;;27.02;16.38;;;;;;;;;;5064760;28;20041;-62
2023/04/23 08:08:10;;;;;;;30.88;21.27;;;;;;;;;;5065155;28;20033;-62
2023/04/23 08:10:35;;;;;;;28.83;19.92;;;;;;;;;;5058652;28;20461;-62
2023/04/23 08:13:01;;;;;;;29.83;20.23;;;;;;;;;;5057554;28;20032;-61
2023/04/23 08:15:26;;;;;;;28.38;18.90;;;;;;;;;;5058288;28;20040;-62
2023/04/23 08:17:51;;;;;;;28.20;18.35;;;;;;;;;;5067478;28;20059;-61
2023/04/23 08:20:17;;;;;;;24.52;17.40;;;;;;;;;;5068104;28;20028;-61
2023/04/23 08:22:42;;;;;;;23.80;17.25;;;;;;;;;;5053993;28;20044;-62
2023/04/23 08:25:08;;;;;;;32.25;17.80;;;;;;;;;;5058446;28;20032;-61
2023/04/23 08:27:33;;;;;;;19.08;14.02;;;;;;;;;;5056928;28;20029;-62
2023/04/23 08:29:59;;;;;;;24.35;15.82;;;;;;;;;;5062374;28;20020;-62
2023/04/23 08:32:24;;;;;;;20.75;14.40;;;;;;;;;;5056921;28;20078;-62
2023/04/23 08:34:50;;;;;;;19.20;14.00;;;;;;;;;;5056991;28;20068;-62
2023/04/23 08:37:15;;;;;;;21.60;15.05;;;;;;;;;;5062601;28;20028;-62
2023/04/23 08:39:40;;;;;;;23.20;16.45;;;;;;;;;;5056766;28;20044;-61
2023/04/23 08:42:10;;;;;;;21.85;15.82;;;;;;;;;;5056761;28;20104;-62
2023/04/23 08:44:36;;;;;;;15.90;11.60;;;;;;;;;;5054367;28;20435;-61
2023/04/23 08:47:03;;;;;;;15.25;10.93;;;;;;;;;;5052154;28;20025;-61
2023/04/23 08:49:31;;;;;;;15.27;10.82;;;;;;;;;;5065623;28;20066;-61
2023/04/23 08:52:00;;;;;;;17.63;12.35;;;;;;;;;;5063200;28;20399;-62
2023/04/23 08:54:26;;;;;;;19.55;13.95;;;;;;;;;;5055644;28;20021;-61
2023/04/23 08:56:54;;;;;;;16.15;11.00;;;;;;;;;;5056542;28;20099;-62
2023/04/23 08:59:21;;;;;;;16.33;10.88;;;;;;;;;;5056148;28;20504;-62
2023/04/23 09:01:47;;;;;;;16.30;11.20;;;;;;;;;;5053642;28;20477;-61
2023/04/23 09:04:15;;;;;;;16.42;11.68;;;;;;;;;;5054120;28;20056;-62
2023/04/23 09:06:44;;;;;;;17.15;12.38;;;;;;;;;;5054102;28;20426;-62
2023/04/23 09:09:11;;;;;;;18.25;12.93;;;;;;;;;;5057680;28;20039;-61
2023/04/23 09:11:37;;;;;;;19.85;12.80;;;;;;;;;;5049937;28;20074;-62
2023/04/23 09:14:02;;;;;;;19.67;12.93;;;;;;;;;;5055352;28;20419;-62
2023/04/23 09:16:28;;;;;;;19.92;13.52;;;;;;;;;;5052610;28;20029;-62
2023/04/23 09:18:53;;;;;;;21.08;13.07;;;;;;;;;;5052171;28;20392;-63
2023/04/23 09:21:19;;;;;;;19.02;13.15;;;;;;;;;;5055072;28;20112;-62
2023/04/23 09:23:44;;;;;;;19.50;13.13;;;;;;;;;;5048794;28;20478;-62
2023/04/23 09:26:17;;;;;;;21.20;13.77;;;;;;;;;;5052387;28;20431;-62
2023/04/23 09:28:43;;;;;;;21.88;13.75;;;;;;;;;;5055069;28;20028;-63
2023/04/23 09:31:09;;;;;;;22.20;15.50;;;;;;;;;;5062069;28;20012;-62
2023/04/23 09:33:35;;;;;;;22.13;15.20;;;;;;;;;;5056290;28;20024;-62
2023/04/23 09:36:10;;;;;;;24.70;14.48;;;;;;;;;;5061636;28;20464;-62
2023/04/23 09:38:36;;;;;;;21.08;13.77;;;;;;;;;;5058433;28;20036;-61
2023/04/23 09:41:23;;;;;;;20.33;14.05;;;;;;;;;;5050772;28;20034;-61
2023/04/23 09:43:51;;;;;;;20.10;13.35;;;;;;;;;;5061984;28;20146;-62
2023/04/23 09:46:16;;;;;;;21.00;14.57;;;;;;;;;;5051854;28;20020;-63
2023/04/23 09:48:42;;;;;;;22.85;14.25;;;;;;;;;;5056606;28;20107;-62
2023/04/23 09:51:07;;;;;;;19.23;13.30;;;;;;;;;;5054826;28;20104;-62
2023/04/23 09:53:39;;;;;;;19.45;12.63;;;;;;;;;;5051290;28;20029;-62
2023/04/23 09:56:05;;;;;;;19.92;13.73;;;;;;;;;;5060858;28;20033;-62
2023/04/23 09:58:31;;;;;;;18.95;12.80;;;;;;;;;;5051989;28;20021;-62
2023/04/23 10:01:05;;;;;;;17.77;13.23;;;;;;;;;;5056777;28;20457;-62
2023/04/23 10:03:30;;;;;;;23.58;14.18;;;;;;;;;;5052042;28;20075;-62
2023/04/23 10:05:57;;;;;;;19.27;14.00;;;;;;;;;;5059254;28;20033;-63
2023/04/23 10:08:23;;;;;;;20.48;13.95;;;;;;;;;;5060515;28;20473;-63
2023/04/23 10:10:48;;;;;;;19.10;13.27;;;;;;;;;;5054556;28;20028;-63
2023/04/23 10:13:14;;;;;;;18.65;13.20;;;;;;;;;;5052152;28;20047;-62
2023/04/23 10:15:39;;;;;;;20.13;13.38;;;;;;;;;;5051233;28;20717;-62
2023/04/23 10:18:06;;;;;;;16.20;11.40;;;;;;;;;;5053782;28;20469;-62
2023/04/23 10:20:33;;;;;;;18.90;11.32;;;;;;;;;;5052499;28;20037;-62
2023/04/23 10:22:59;;;;;;;16.27;11.30;;;;;;;;;;5046837;28;20053;-62
2023/04/23 10:25:25;;;;;;;14.30;9.95;;;;;;;;;;5041304;28;20032;-63
2023/04/23 10:27:51;;;;;;;15.00;10.65;;;;;;;;;;5045016;28;20473;-62
2023/04/23 10:30:17;;;;;;;13.30;9.70;;;;;;;;;;5048636;28;20025;-62
2023/04/23 10:32:43;;;;;;;14.30;9.55;;;;;;;;;;5048096;28;20017;-62
2023/04/23 10:35:09;;;;;;;17.60;10.23;;;;;;;;;;5051230;28;20360;-62
2023/04/23 10:37:35;;;;;;;12.23;7.63;;;;;;;;;;5037482;28;20060;-62
2023/04/23 10:40:12;;;;;;;12.75;8.25;;;;;;;;;;5048292;28;20119;-63
2023/04/23 10:42:38;;;;;;;10.13;7.68;;;;;;;;;;5050931;28;20502;-63
2023/04/23 10:45:07;;;;;;;12.13;8.55;;;;;;;;;;5037133;28;20029;-64
2023/04/23 10:47:32;;;;;;;13.65;9.48;;;;;;;;;;5044626;28;20029;-63
2023/04/23 10:50:16;;;;;;;13.07;9.70;;;;;;;;;;5047246;28;20028;-64
2023/04/23 10:52:42;;;;;;;12.80;9.20;;;;;;;;;;5049775;28;20152;-63
2023/04/23 10:55:15;;;;;;;12.75;7.70;;;;;;;;;;5043441;28;20586;-62
2023/04/23 10:58:03;;;;;;;9.52;5.97;;;;;;;;;;5059802;28;20025;-63
2023/04/23 11:00:40;;;;;;;9.40;5.57;;;;;;;;;;5044531;28;20034;-62
2023/04/23 11:03:25;;;;;;;9.27;6.03;;;;;;;;;;5055385;28;20016;-62
2023/04/23 11:05:50;;;;;;;9.45;4.75;;;;;;;;;;5051130;28;20063;-62
2023/04/23 11:08:15;;;;;;;8.32;5.00;;;;;;;;;;5060347;28;20032;-63
2023/04/23 11:11:01;;;;;;;10.50;5.43;;;;;;;;;;5050415;28;20041;-63
2023/04/23 11:13:27;;;;;;;10.73;6.10;;;;;;;;;;5044478;28;20024;-63
2023/04/23 11:16:15;;;;;;;11.13;6.63;;;;;;;;;;5038169;28;20425;-63
2023/04/23 11:19:16;;;;;;;10.25;6.82;;;;;;;;;;5032708;28;20029;-63
2023/04/23 11:22:00;;;;;;;9.80;6.15;;;;;;;;;;5046815;28;20036;-63
2023/04/23 11:24:41;;;;;;;8.45;5.15;;;;;;;;;;5050563;28;20093;-63
2023/04/23 11:27:16;;;;;;;9.38;6.10;;;;;;;;;;5050958;28;20017;-63
2023/04/23 11:29:42;;;;;;;12.35;7.03;;;;;;;;;;5049649;28;20025;-63
2023/04/23 11:32:12;;;;;;;8.95;5.43;;;;;;;;;;5050076;28;20036;-63
2023/04/23 11:34:38;;;;;;;8.65;5.40;;;;;;;;;;5049973;28;20138;-63
2023/04/23 11:37:03;;;;;;;9.15;5.25;;;;;;;;;;5043793;28;20033;-64
2023/04/23 11:39:29;;;;;;;6.63;4.30;;;;;;;;;;5046788;28;20477;-63
2023/04/23 11:41:55;;;;;;;9.52;4.82;;;;;;;;;;5049367;28;20116;-63
2023/04/23 11:44:21;;;;;;;9.57;5.15;;;;;;;;;;5034925;28;20497;-63
2023/04/23 11:46:48;;;;;;;7.22;4.30;;;;;;;;;;5023973;28;20123;-63
2023/04/23 11:49:14;;;;;;;8.32;4.70;;;;;;;;;;5027633;28;20466;-63
2023/04/23 11:51:40;;;;;;;8.43;4.05;;;;;;;;;;5033693;28;20155;-63
2023/04/23 11:54:06;;;;;;;5.65;3.60;;;;;;;;;;5044840;28;20041;-63
2023/04/23 11:56:31;;;;;;;6.80;3.92;;;;;;;;;;5067826;28;20494;-63
2023/04/23 11:59:02;;;;;;;6.85;4.03;;;;;;;;;;5063694;28;20024;-62
2023/04/23 12:01:38;;;;;;;7.75;4.38;;;;;;;;;;5059016;28;20052;-63
2023/04/23 12:04:17;;;;;;;5.35;3.60;;;;;;;;;;5071766;28;20056;-63
2023/04/23 12:06:44;;;;;;;8.20;4.07;;;;;;;;;;5071223;28;20048;-63
2023/04/23 12:09:10;;;;;;;9.05;5.10;;;;;;;;;;5066376;28;20021;-63
2023/04/23 12:11:36;;;;;;;7.90;4.57;;;;;;;;;;5071988;28;20021;-63
2023/04/23 12:14:01;;;;;;;6.93;4.07;;;;;;;;;;5068992;28;20457;-63
2023/04/23 12:16:33;;;;;;;7.70;3.83;;;;;;;;;;5062752;28;20017;-63
2023/04/23 12:18:59;;;;;;;7.47;3.70;;;;;;;;;;5070421;28;20139;-63
2023/04/23 12:21:27;;;;;;;5.68;3.00;;;;;;;;;;5071588;28;20467;-63
2023/04/23 12:23:52;;;;;;;6.38;3.58;;;;;;;;;;5063699;28;20047;-63
2023/04/23 12:26:19;;;;;;;7.18;3.33;;;;;;;;;;5070303;28;20017;-63
2023/04/23 12:28:50;;;;;;;7.20;3.30;;;;;;;;;;5072675;28;20079;-63
2023/04/23 12:31:23;;;;;;;7.32;3.63;;;;;;;;;;5067994;28;20031;-63
2023/04/23 12:34:17;;;;;;;6.93;2.90;;;;;;;;;;5033773;28;20033;-64
2023/04/23 12:36:48;;;;;;;6.47;3.22;;;;;;;;;;5060008;28;20041;-63
2023/04/23 12:39:31;;;;;;;6.68;3.58;;;;;;;;;;5068565;28;20051;-64
2023/04/23 12:41:59;;;;;;;6.38;2.78;;;;;;;;;;5066072;28;20033;-63
2023/04/23 12:44:25;;;;;;;6.22;3.15;;;;;;;;;;5068908;28;20029;-63
2023/04/23 12:46:57;;;;;;;5.88;3.25;;;;;;;;;;5058138;28;20086;-63
2023/04/23 12:49:22;;;;;;;6.70;3.47;;;;;;;;;;5046318;28;20028;-64
2023/04/23 12:51:48;;;;;;;7.45;3.78;;;;;;;;;;5049501;28;20029;-63
2023/04/23 12:54:13;;;;;;;5.85;3.63;;;;;;;;;;5050925;28;20051;-63
2023/04/23 12:56:38;;;;;;;7.70;2.80;;;;;;;;;;5051963;28;20033;-63
2023/04/23 12:59:04;;;;;;;7.70;3.10;;;;;;;;;;5058766;28;20128;-64
2023/04/23 13:01:30;;;;;;;6.35;2.83;;;;;;;;;;5056569;28;20432;-64
2023/04/23 13:03:55;;;;;;;6.20;2.80;;;;;;;;;;5054901;28;20079;-64
2023/04/23 13:06:20;;;;;;;5.50;3.00;;;;;;;;;;5054559;28;20489;-63
2023/04/23 13:08:45;;;;;;;6.75;2.72;;;;;;;;;;5070585;28;20036;-63
2023/04/23 13:11:11;;;;;;;5.47;2.70;;;;;;;;;;5058715;28;20040;-63
2023/04/23 13:13:36;;;;;;;7.95;3.35;;;;;;;;;;5056555;28;20524;-63
2023/04/23 13:16:01;;;;;;;6.13;2.88;;;;;;;;;;5052791;28;20102;-63
2023/04/23 13:18:27;;;;;;;5.65;2.58;;;;;;;;;;5054600;28;20155;-63
2023/04/23 13:20:52;;;;;;;5.22;3.22;;;;;;;;;;5054218;28;20029;-63
2023/04/23 13:23:17;;;;;;;5.70;2.80;;;;;;;;;;5053642;28;20051;-63
2023/04/23 13:25:43;;;;;;;5.43;2.72;;;;;;;;;;5053815;28;20087;-63
2023/04/23 13:28:08;;;;;;;6.13;2.90;;;;;;;;;;5053575;28;20487;-63
2023/04/23 13:30:33;;;;;;;5.70;2.40;;;;;;;;;;5048463;28;20035;-63
2023/04/23 13:32:58;;;;;;;5.40;2.90;;;;;;;;;;5056791;28;20055;-63
2023/04/23 13:35:24;;;;;;;7.75;2.83;;;;;;;;;;5046586;28;20103;-63
2023/04/23 13:37:49;;;;;;;7.22;3.05;;;;;;;;;;5055625;28;20027;-63
2023/04/23 13:40:15;;;;;;;6.32;2.88;;;;;;;;;;5052712;28;20109;-63
2023/04/23 13:42:40;;;;;;;6.70;3.05;;;;;;;;;;5056176;28;20025;-63
2023/04/23 13:45:06;;;;;;;5.47;3.00;;;;;;;;;;5061718;28;20538;-63
2023/04/23 13:47:33;;;;;;;5.72;2.55;;;;;;;;;;5052403;28;20057;-63
2023/04/23 13:50:01;;;;;;;5.78;3.20;;;;;;;;;;5055415;28;20021;-63
2023/04/23 13:52:27;;;;;;;6.72;3.30;;;;;;;;;;5057318;28;20025;-63
2023/04/23 13:54:53;;;;;;;6.70;3.00;;;;;;;;;;5052863;28;20028;-63
2023/04/23 13:57:18;;;;;;;5.30;2.92;;;;;;;;;;5061548;28;20389;-64
2023/04/23 13:59:44;;;;;;;5.55;2.95;;;;;;;;;;5067343;28;20021;-63
2023/04/23 14:02:09;;;;;;;6.75;2.90;;;;;;;;;;5054696;28;20021;-63
2023/04/23 14:04:35;;;;;;;7.28;3.10;;;;;;;;;;5054543;28;20471;-63
2023/04/23 14:07:00;;;;;;;5.90;2.92;;;;;;;;;;5053596;28;20103;-63
2023/04/23 14:09:25;;;;;;;6.35;3.10;;;;;;;;;;5062273;28;20211;-63
2023/04/23 14:11:51;;;;;;;8.25;3.40;;;;;;;;;;5054673;28;20027;-63
2023/04/23 14:14:16;;;;;;;7.28;3.33;;;;;;;;;;5052742;28;20048;-63
2023/04/23 14:16:42;;;;;;;9.02;3.85;;;;;;;;;;5058318;28;20021;-63
2023/04/23 14:19:07;;;;;;;6.68;3.40;;;;;;;;;;5057346;28;20451;-63
2023/04/23 14:21:34;;;;;;;6.50;3.45;;;;;;;;;;5051181;28;20021;-63